Flight Track Log - Related Links

Times and Time Zones

All times are in EDT time to prevent confusion due to time zone crossing. See the TYR963 flight status page for this flight to view local times or setup timezone preferences in your user account.

Time Position Orientation Groundspeed Altitude Reporting Facility
EDT Latitude Longitude Course Direction KTS MPH feet Rate Location/Type
Wed 04:24:00 AM 47.8866 16.3390 215° Southwest  Level Estimated
Wed 04:25:00 AM 47.8119 16.2626 215° Southwest  Level Estimated
Wed 04:26:00 AM 47.7372 16.1863 214° Southwest  Level Estimated
Wed 04:27:00 AM 47.6624 16.1103 214° Southwest  Level Estimated
Wed 04:28:00 AM 47.5876 16.0345 214° Southwest  Level Estimated
Wed 04:29:00 AM 47.5127 15.9589 214° Southwest  Level Estimated
Wed 04:30:00 AM 47.4378 15.8836 214° Southwest  Level Estimated
Wed 04:31:00 AM 47.3628 15.8084 214° Southwest  Level Estimated
Wed 04:32:00 AM 47.2878 15.7335 214° Southwest  Level Estimated
Wed 04:33:00 AM 47.2127 15.6587 214° Southwest  Level Estimated
Wed 04:34:00 AM 47.1376 15.5842 214° Southwest  Level Estimated
Wed 04:35:00 AM 47.0624 15.5099 214° Southwest  Level Estimated
Wed 04:36:00 AM 46.9911 15.4396 214° Southwest  Level Estimated
Wed 04:37:00 AM 46.9911 15.4396 204° Southwest  Level Estimated
Wed 04:38:00 AM 46.9911 15.4396 204° Southwest  Level Estimated
Wed 04:39:00 AM 46.9911 15.4396 204° Southwest  Level Estimated
Wed 04:40:00 AM 46.9911 15.4396 204° Southwest  Level Estimated
Wed 04:41:00 AM 46.9911 15.4396 204° Southwest  Level Estimated
Wed 04:42:00 AM 46.9911 15.4396 204° Southwest  Level Estimated
Wed 04:43:00 AM 46.9911 15.4396 204° Southwest  Level Estimated

Login

Don't have an account? Register now (free) for customized features, flight alerts, and more!